Time;durP1;ratioP1;P1;durP2;ratioP2;P2;SDS_P1;SDS_P2;PMS_P1;PMS_P2;Temp;Humidity;BMP_temperature;BMP_pressure;BME280_temperature;BME280_humidity;BME280_pressure;Samples;Min_cycle;Max_cycle;Signal;HPM_P1;HPM_P2
2023/01/12 00:02:18;;;;;;;12.70;3.30;;;;;;;7.80;84.98;100711.66;5113438;28;20185;-71
2023/01/12 00:04:44;;;;;;;2.67;2.47;;;;;;;7.82;85.49;100714.22;5113413;28;20670;-71
2023/01/12 00:07:13;;;;;;;3.10;2.83;;;;;;;7.77;85.91;100709.16;5113630;28;20235;-71
2023/01/12 00:09:39;;;;;;;10.13;3.33;;;;;;;7.77;85.17;100700.31;5095325;28;20188;-71
2023/01/12 00:12:08;;;;;;;15.57;3.10;;;;;;;7.81;84.81;100705.38;5113299;28;20219;-71
2023/01/12 00:14:36;;;;;;;8.87;3.27;;;;;;;7.84;84.50;100691.00;5113344;28;20532;-71
2023/01/12 00:17:04;;;;;;;5.57;3.87;;;;;;;7.80;84.65;100689.47;5113405;28;20276;-71
2023/01/12 00:19:32;;;;;;;10.70;3.70;;;;;;;7.89;84.36;100695.09;5113826;28;20185;-71
2023/01/12 00:22:12;;;;;;;8.43;2.97;;;;;;;7.93;84.58;100695.78;5113053;28;20619;-72
2023/01/12 00:24:48;;;;;;;5.90;2.33;;;;;;;7.96;84.59;100697.41;5113808;28;20265;-72
2023/01/12 00:27:18;;;;;;;13.17;3.43;;;;;;;7.97;84.81;100699.09;5113385;28;20205;-71
2023/01/12 00:29:45;;;;;;;12.73;2.83;;;;;;;7.95;84.41;100701.88;5111947;28;20727;-72
2023/01/12 00:32:14;;;;;;;8.37;3.63;;;;;;;8.00;84.54;100697.13;5094922;28;20217;-72
2023/01/12 00:34:41;;;;;;;6.87;2.77;;;;;;;8.06;85.26;100695.88;5113444;28;20647;-72
2023/01/12 00:37:08;;;;;;;9.87;2.77;;;;;;;8.02;84.91;100697.88;5113453;28;20233;-72
2023/01/12 00:39:38;;;;;;;17.70;3.57;;;;;;;7.96;85.63;100689.41;5113655;28;20195;-72
2023/01/12 00:47:42;;;;;;;7.47;2.60;;;;;;;8.10;85.56;100684.06;5114680;28;20671;-71
2023/01/12 00:50:08;;;;;;;6.17;2.80;;;;;;;8.09;85.08;100672.53;5116675;28;20185;-72
2023/01/12 00:52:35;;;;;;;12.13;3.00;;;;;;;8.11;84.65;100667.09;5116557;28;20288;-72
2023/01/12 00:55:01;;;;;;;11.07;3.30;;;;;;;8.10;84.86;100679.59;5116875;28;20584;-72
2023/01/12 00:57:28;;;;;;;6.93;3.13;;;;;;;8.12;84.61;100668.81;5116435;28;20212;-73
2023/01/12 00:59:56;;;;;;;9.10;3.07;;;;;;;8.13;84.45;100673.19;5116491;28;20235;-72
2023/01/12 01:02:24;;;;;;;4.43;2.37;;;;;;;8.14;84.76;100685.59;5116621;28;20296;-72
2023/01/12 01:04:50;;;;;;;4.30;3.33;;;;;;;8.13;85.22;100672.34;5116900;28;20651;-72
2023/01/12 01:07:20;;;;;;;8.67;3.03;;;;;;;8.15;85.03;100673.09;5116234;28;20291;-72
2023/01/12 01:09:46;;;;;;;7.00;4.00;;;;;;;8.15;84.54;100681.13;5116816;28;20716;-72
2023/01/12 01:12:13;;;;;;;9.07;3.67;;;;;;;8.21;84.81;100692.25;5116690;28;20758;-73
2023/01/12 01:14:39;;;;;;;4.20;3.50;;;;;;;8.25;84.12;100693.75;5116172;28;20550;-73
2023/01/12 01:17:06;;;;;;;4.77;3.73;;;;;;;8.25;84.66;100685.75;5116638;28;20201;-72
2023/01/12 01:19:32;;;;;;;3.70;3.40;;;;;;;8.25;85.09;100700.91;5098056;28;20189;-72
2023/01/12 01:21:59;;;;;;;6.73;5.10;;;;;;;8.21;85.07;100700.25;5115893;28;20256;-72
2023/01/12 01:24:25;;;;;;;5.83;5.20;;;;;;;8.22;84.87;100688.63;5097758;28;20279;-72
2023/01/12 01:26:52;;;;;;;11.43;5.27;;;;;;;8.25;84.88;100683.09;5115873;28;20204;-71
2023/01/12 01:29:18;;;;;;;17.03;3.83;;;;;;;8.28;85.16;100698.03;5115864;28;20181;-72
2023/01/12 01:31:46;;;;;;;6.93;3.87;;;;;;;8.26;85.50;100692.81;5115777;28;20745;-72
2023/01/12 01:34:13;;;;;;;5.07;4.53;;;;;;;8.32;85.01;100689.75;5115768;28;20189;-72
2023/01/12 01:36:39;;;;;;;12.80;4.67;;;;;;;8.36;84.98;100687.78;5098189;28;20296;-72
2023/01/12 01:39:06;;;;;;;13.37;4.33;;;;;;;8.37;85.03;100677.94;5116239;28;20189;-72
2023/01/12 01:41:32;;;;;;;8.60;4.70;;;;;;;8.40;84.71;100686.63;5116218;28;20219;-72
2023/01/12 01:44:01;;;;;;;5.03;4.53;;;;;;;8.41;84.23;100687.50;5115903;28;20529;-72
2023/01/12 01:46:41;;;;;;;3.93;3.63;;;;;;;8.38;84.25;100683.19;5115490;28;20196;-71
2023/01/12 01:49:13;;;;;;;12.03;4.43;;;;;;;8.39;84.34;100676.88;5115842;28;20174;-71
2023/01/12 01:51:42;;;;;;;13.90;4.43;;;;;;;8.38;84.72;100680.53;5115718;28;20280;-72
2023/01/12 01:54:09;;;;;;;9.70;4.83;;;;;;;8.43;84.53;100669.59;5115712;28;20184;-72
2023/01/12 01:56:36;;;;;;;16.57;4.90;;;;;;;8.45;84.80;100659.66;5115283;28;20189;-71
2023/01/12 01:59:13;;;;;;;14.93;4.40;;;;;;;8.43;84.93;100658.91;5115181;28;20293;-72
2023/01/12 02:01:40;;;;;;;3.93;3.37;;;;;;;8.46;84.99;100638.22;5115652;28;20162;-72
2023/01/12 02:04:07;;;;;;;8.80;4.17;;;;;;;8.47;84.81;100639.91;5115184;28;20192;-72
2023/01/12 02:06:33;;;;;;;9.23;3.83;;;;;;;8.48;84.18;100630.13;5115064;28;20238;-71
2023/01/12 02:09:07;;;;;;;11.07;3.23;;;;;;;8.47;84.49;100639.06;5115424;28;20235;-71
2023/01/12 02:17:22;;;;;;;8.40;3.33;;;;;;;8.48;84.10;100617.63;5115084;28;20280;-72
2023/01/12 02:20:27;;;;;;;8.83;3.20;;;;;;;8.39;84.45;100625.34;5113965;28;20180;-72
2023/01/12 02:23:21;;;;;;;4.63;2.27;;;;;;;8.43;84.46;100621.56;5114771;28;20188;-72
2023/01/12 02:26:15;;;;;;;3.70;3.00;;;;;;;8.45;84.17;100635.63;5115444;28;20256;-72
2023/01/12 02:29:02;;;;;;;11.60;3.73;;;;;;;8.51;84.48;100613.91;5114707;28;20221;-72
2023/01/12 02:31:51;;;;;;;6.43;3.03;;;;;;;8.49;84.20;100611.31;5114946;28;20304;-73
2023/01/12 02:34:24;;;;;;;8.67;3.43;;;;;;;8.52;84.61;100602.25;5114934;28;20549;-72
2023/01/12 02:37:11;;;;;;;7.77;3.40;;;;;;;8.48;84.58;100604.28;5114997;28;20213;-71
2023/01/12 02:40:00;;;;;;;8.97;2.53;;;;;;;8.49;84.24;100595.31;5101111;28;20201;-71
2023/01/12 02:42:41;;;;;;;9.80;2.70;;;;;;;8.48;84.25;100593.59;5115052;28;20170;-71
2023/01/12 02:45:28;;;;;;;8.63;3.37;;;;;;;8.43;84.24;100600.22;5114791;28;20185;-71
2023/01/12 02:47:57;;;;;;;2.97;2.70;;;;;;;8.43;84.46;100587.72;5114839;28;20682;-71
2023/01/12 02:50:33;;;;;;;7.37;3.40;;;;;;;8.34;85.31;100582.09;5114352;28;20600;-72
2023/01/12 02:53:32;;;;;;;3.63;3.40;;;;;;;8.30;85.56;100579.59;5114806;28;20288;-72
2023/01/12 02:56:02;;;;;;;7.10;3.13;;;;;;;8.28;85.67;100578.88;5114105;28;20203;-72
2023/01/12 02:58:34;;;;;;;15.97;3.20;;;;;;;8.26;85.97;100579.91;5114249;28;20240;-72
2023/01/12 03:01:03;;;;;;;10.63;2.97;;;;;;;8.24;86.09;100565.81;5114503;28;20519;-72
2023/01/12 03:03:30;;;;;;;15.53;3.50;;;;;;;8.18;86.68;100564.38;5114390;28;20181;-72
2023/01/12 03:05:58;;;;;;;10.43;3.17;;;;;;;8.22;86.40;100560.56;5114650;28;20280;-72
2023/01/12 03:08:27;;;;;;;14.40;3.33;;;;;;;8.25;86.00;100548.84;5113955;28;20300;-73
2023/01/12 03:11:16;;;;;;;11.33;3.53;;;;;;;8.24;86.15;100542.66;5113462;28;20203;-73
2023/01/12 03:13:53;;;;;;;7.80;2.67;;;;;;;8.28;86.37;100538.84;5096169;28;20181;-73
2023/01/12 03:16:24;;;;;;;9.17;3.27;;;;;;;8.24;86.29;100550.66;5114472;28;20212;-73
2023/01/12 03:19:12;;;;;;;8.33;3.27;;;;;;;8.21;86.21;100524.19;5114214;28;20181;-72
2023/01/12 03:21:44;;;;;;;8.57;3.90;;;;;;;8.15;86.85;100527.25;5113877;28;20184;-72
2023/01/12 03:24:15;;;;;;;14.90;3.40;;;;;;;8.18;86.39;100539.53;5113704;28;20342;-72
2023/01/12 03:26:46;;;;;;;8.90;3.57;;;;;;;8.10;87.06;100526.69;5113758;28;20778;-72
2023/01/12 03:29:26;;;;;;;10.33;3.37;;;;;;;8.14;87.07;100511.34;5114377;28;20184;-72
2023/01/12 03:31:53;;;;;;;5.03;2.40;;;;;;;8.13;86.59;100523.81;5114248;28;20250;-72
2023/01/12 03:34:20;;;;;;;10.70;2.77;;;;;;;8.10;87.12;100521.38;5095689;28;20276;-72
2023/01/12 03:37:06;;;;;;;16.70;3.53;;;;;;;8.13;87.41;100509.63;5113660;28;20200;-72
2023/01/12 03:39:52;;;;;;;15.17;4.37;;;;;;;8.03;87.25;100504.91;5113985;28;20179;-72
2023/01/12 03:42:31;;;;;;;10.07;3.03;;;;;;;8.12;86.30;100518.56;5114232;28;20251;-72
2023/01/12 03:45:26;;;;;;;14.60;2.87;;;;;;;8.13;86.66;100522.97;5113965;28;20259;-73
2023/01/12 03:48:00;;;;;;;5.27;3.57;;;;;;;8.18;86.77;100510.19;5095357;28;20213;-72
2023/01/12 03:50:35;;;;;;;5.97;2.80;;;;;;;8.24;87.17;100501.78;5113869;28;20165;-72
2023/01/12 03:53:05;;;;;;;6.20;4.40;;;;;;;8.24;86.29;100509.81;5114066;28;20283;-72
2023/01/12 03:55:34;;;;;;;8.27;3.63;;;;;;;8.28;86.17;100495.28;5113872;28;20625;-72
2023/01/12 03:58:01;;;;;;;12.30;3.17;;;;;;;8.34;86.32;100486.03;5114244;28;20561;-73
2023/01/12 04:00:29;;;;;;;10.17;2.60;;;;;;;8.27;86.04;100478.41;5113450;28;20706;-73
2023/01/12 04:03:03;;;;;;;5.13;2.37;;;;;;;8.27;86.78;100475.75;5113717;28;20264;-73
2023/01/12 04:05:30;;;;;;;8.83;3.53;;;;;;;8.23;86.33;100479.56;5114066;28;20218;-72
2023/01/12 04:07:56;;;;;;;9.47;2.97;;;;;;;8.28;85.77;100472.16;5113381;28;20283;-74
2023/01/12 04:10:23;;;;;;;6.83;2.70;;;;;;;8.19;86.00;100471.88;5113392;28;20264;-71
2023/01/12 04:12:49;;;;;;;7.90;2.93;;;;;;;8.21;86.48;100467.28;5113875;28;20197;-70
2023/01/12 04:15:15;;;;;;;13.87;2.73;;;;;;;8.20;86.49;100465.59;5095108;28;20200;-70
2023/01/12 04:17:42;;;;;;;6.43;2.63;;;;;;;8.18;85.99;100449.69;5113500;28;20296;-70
2023/01/12 04:20:09;;;;;;;9.30;2.43;;;;;;;8.18;86.00;100462.16;5113313;28;20272;-70
2023/01/12 04:22:42;;;;;;;6.93;2.40;;;;;;;8.23;86.03;100468.06;5114676;28;20228;-71
2023/01/12 04:25:10;;;;;;;4.43;2.80;;;;;;;8.27;85.92;100466.91;5117462;28;20181;-71
2023/01/12 04:27:41;;;;;;;10.23;2.80;;;;;;;8.24;86.24;100461.78;5117186;28;20201;-71
2023/01/12 04:30:08;;;;;;;7.00;2.53;;;;;;;8.25;86.25;100460.81;5117654;28;20181;-71
2023/01/12 04:32:34;;;;;;;7.03;2.73;;;;;;;8.25;86.29;100466.16;5116904;28;20572;-71
2023/01/12 04:35:01;;;;;;;8.00;2.77;;;;;;;8.29;86.31;100451.66;5116946;28;20268;-71
2023/01/12 04:37:27;;;;;;;8.73;2.40;;;;;;;8.32;86.38;100446.94;5117219;28;20215;-71
2023/01/12 04:39:54;;;;;;;6.03;2.20;;;;;;;8.29;86.15;100452.50;5117180;28;20276;-71
2023/01/12 04:45:05;;;;;;;4.30;2.30;;;;;;;8.22;86.78;100435.19;5117110;28;20166;-71
2023/01/12 04:47:32;;;;;;;3.10;2.63;;;;;;;8.18;86.40;100440.84;5116913;28;20288;-71
2023/01/12 04:49:59;;;;;;;2.40;1.90;;;;;;;8.20;86.97;100421.09;5116670;28;20189;-71
2023/01/12 04:52:25;;;;;;;4.67;2.47;;;;;;;8.17;87.22;100418.66;5098314;28;20217;-71
2023/01/12 04:54:51;;;;;;;7.77;2.93;;;;;;;8.20;86.95;100404.25;5115470;28;20181;-71
2023/01/12 04:57:18;;;;;;;8.53;2.20;;;;;;;8.18;87.67;100403.50;5116474;28;20292;-70
2023/01/12 04:59:44;;;;;;;10.03;2.60;;;;;;;8.16;87.33;100395.56;5116775;28;20188;-71
2023/01/12 05:02:11;;;;;;;2.80;2.07;;;;;;;8.22;87.80;100397.00;5116512;28;20192;-71
2023/01/12 05:04:37;;;;;;;2.37;2.17;;;;;;;8.17;87.40;100399.97;5116429;28;20181;-71
2023/01/12 05:07:04;;;;;;;4.17;2.50;;;;;;;8.12;87.63;100401.22;5116278;28;20212;-70
2023/01/12 05:12:15;;;;;;;5.37;2.37;;;;;;;8.15;88.10;100383.22;5116215;28;20254;-71
2023/01/12 05:14:41;;;;;;;3.93;2.00;;;;;;;8.12;87.48;100371.88;5117086;28;20681;-71
2023/01/12 05:17:08;;;;;;;3.00;2.10;;;;;;;8.10;88.04;100364.84;5116070;28;20201;-71
2023/01/12 05:19:34;;;;;;;2.50;2.30;;;;;;;8.14;88.33;100375.31;5116680;28;20260;-71
2023/01/12 05:22:00;;;;;;;3.70;1.90;;;;;;;8.05;88.12;100363.47;5097534;28;20204;-71
2023/01/12 05:24:27;;;;;;;2.97;2.17;;;;;;;8.09;87.72;100360.50;5116847;28;20264;-71
2023/01/12 05:26:53;;;;;;;5.27;2.17;;;;;;;8.13;87.82;100352.28;5116092;28;20567;-71
2023/01/12 05:29:20;;;;;;;4.10;1.90;;;;;;;8.05;88.35;100342.97;5116459;28;20177;-71
2023/01/12 05:31:46;;;;;;;4.73;2.60;;;;;;;8.11;87.52;100339.03;5115690;28;20603;-71
2023/01/12 05:34:12;;;;;;;3.97;1.70;;;;;;;8.03;87.76;100331.56;5097314;28;20209;-72
2023/01/12 05:36:39;;;;;;;4.83;1.70;;;;;;;8.07;88.35;100329.53;5115659;28;20219;-71
2023/01/12 05:39:05;;;;;;;5.03;1.67;;;;;;;8.07;88.16;100333.06;5116245;28;20730;-71
2023/01/12 05:41:31;;;;;;;3.70;1.93;;;;;;;8.03;88.06;100309.38;5115630;28;20268;-71
2023/01/12 05:43:58;;;;;;;5.10;1.90;;;;;;;8.02;88.19;100299.66;5115924;28;20178;-71
2023/01/12 05:46:30;;;;;;;2.90;2.40;;;;;;;8.03;87.97;100288.88;5115510;28;20187;-71
2023/01/12 05:48:57;;;;;;;2.47;2.03;;;;;;;8.05;87.75;100286.97;5115859;28;20265;-72
2023/01/12 05:51:25;;;;;;;1.80;1.70;;;;;;;8.03;87.88;100264.03;5115475;28;20242;-71
2023/01/12 05:53:53;;;;;;;1.63;1.53;;;;;;;7.98;87.73;100266.16;5115940;28;20292;-71
2023/01/12 05:56:24;;;;;;;2.63;2.07;;;;;;;8.03;88.05;100288.88;5097347;28;20276;-73
2023/01/12 05:58:57;;;;;;;6.43;2.23;;;;;;;8.06;87.84;100288.66;5115645;28;20181;-73
2023/01/12 06:01:23;;;;;;;6.80;1.43;;;;;;;8.11;87.31;100280.34;5115609;28;20686;-73
2023/01/12 06:03:52;;;;;;;2.47;1.90;;;;;;;8.09;87.56;100276.94;5115291;28;20546;-73
2023/01/12 06:06:20;;;;;;;2.17;1.80;;;;;;;8.03;87.48;100270.22;5115493;28;20190;-73
2023/01/12 06:08:46;;;;;;;5.00;1.70;;;;;;;8.03;87.64;100264.03;5115136;28;20276;-73
2023/01/12 06:13:59;;;;;;;2.63;2.23;;;;;;;8.01;87.46;100253.47;5115286;28;20202;-73
2023/01/12 06:16:27;;;;;;;2.50;2.23;;;;;;;8.01;87.59;100258.78;5114937;28;20213;-72
2023/01/12 06:18:54;;;;;;;3.30;1.93;;;;;;;8.03;86.88;100246.22;5115536;28;20275;-73
2023/01/12 06:21:21;;;;;;;3.20;2.03;;;;;;;8.06;87.04;100245.16;5115488;28;20585;-73
2023/01/12 06:23:48;;;;;;;4.53;1.40;;;;;;;8.02;87.49;100246.31;5114655;28;20279;-73
2023/01/12 06:26:15;;;;;;;1.67;1.60;;;;;;;8.02;87.92;100260.53;5114789;28;20185;-73
2023/01/12 06:28:42;;;;;;;3.37;1.87;;;;;;;8.06;87.31;100232.66;5114762;28;20292;-73
2023/01/12 06:31:10;;;;;;;1.43;1.20;;;;;;;8.04;87.22;100226.56;5114701;28;20189;-73
2023/01/12 06:33:37;;;;;;;4.53;1.87;;;;;;;8.10;87.13;100227.97;5114841;28;20205;-73
2023/01/12 06:36:04;;;;;;;4.03;1.77;;;;;;;8.11;87.18;100243.00;5114872;28;20268;-73
2023/01/12 06:38:32;;;;;;;3.17;1.87;;;;;;;8.16;87.31;100272.03;5114523;28;20296;-73
2023/01/12 06:43:56;;;;;;;2.13;2.03;;;;;;;8.27;87.08;100264.16;5114697;28;20512;-73
2023/01/12 06:46:22;;;;;;;2.33;2.00;;;;;;;8.26;87.28;100260.63;5113616;28;20224;-72
2023/01/12 06:48:49;;;;;;;6.17;2.67;;;;;;;8.27;87.60;100250.81;5114426;28;20181;-72
2023/01/12 06:51:15;;;;;;;7.83;2.33;;;;;;;8.25;87.26;100240.22;5114627;28;20193;-73
2023/01/12 06:53:41;;;;;;;6.63;1.50;;;;;;;8.21;87.53;100229.88;5114543;28;20292;-73
2023/01/12 06:56:08;;;;;;;2.10;1.63;;;;;;;8.17;86.90;100247.94;5114261;28;20181;-73
2023/01/12 06:58:34;;;;;;;5.17;1.50;;;;;;;8.16;87.36;100251.53;5114144;28;20209;-73
2023/01/12 07:01:02;;;;;;;4.87;1.70;;;;;;;8.19;87.42;100245.13;5114495;28;20182;-73
2023/01/12 07:03:28;;;;;;;2.90;1.63;;;;;;;8.20;87.59;100249.53;5114083;28;20571;-73
2023/01/12 07:05:59;;;;;;;4.33;2.27;;;;;;;8.19;87.28;100239.81;5114058;28;20268;-73
2023/01/12 07:08:26;;;;;;;2.70;1.80;;;;;;;8.20;87.56;100245.03;5114032;28;20197;-73
2023/01/12 07:10:53;;;;;;;4.40;2.43;;;;;;;8.17;87.63;100231.94;5096930;28;20347;-73
2023/01/12 07:13:19;;;;;;;6.80;1.90;;;;;;;8.22;88.02;100261.81;5113923;28;20747;-73
2023/01/12 07:15:46;;;;;;;5.40;1.87;;;;;;;8.22;87.82;100247.63;5113971;28;20272;-73
2023/01/12 07:18:12;;;;;;;2.77;1.83;;;;;;;8.25;88.26;100242.06;5113868;28;20208;-73
2023/01/12 07:20:38;;;;;;;5.53;1.70;;;;;;;8.22;87.91;100256.47;5113848;28;20224;-73
2023/01/12 07:23:05;;;;;;;2.97;1.47;;;;;;;8.21;87.92;100240.56;5113828;28;20216;-73
2023/01/12 07:25:31;;;;;;;7.23;2.37;;;;;;;8.35;88.10;100237.78;5096319;28;20220;-73
2023/01/12 07:27:58;;;;;;;2.13;1.63;;;;;;;8.43;87.75;100242.63;5113706;28;20280;-73
2023/01/12 07:30:25;;;;;;;6.13;1.93;;;;;;;8.48;87.84;100241.31;5113774;28;20213;-73
2023/01/12 07:32:51;;;;;;;2.47;1.53;;;;;;;8.48;88.19;100244.00;5113682;28;20314;-73
2023/01/12 07:35:18;;;;;;;2.80;1.50;;;;;;;8.50;88.09;100242.06;5113664;28;20189;-73
2023/01/12 07:37:49;;;;;;;7.20;2.30;;;;;;;8.48;88.11;100230.66;5113567;28;20201;-72
2023/01/12 07:40:16;;;;;;;1.80;1.70;;;;;;;8.49;88.27;100236.84;5113640;28;20319;-73
2023/01/12 07:42:43;;;;;;;3.83;1.93;;;;;;;8.49;88.26;100228.81;5113654;28;20181;-73
2023/01/12 07:45:11;;;;;;;2.17;1.97;;;;;;;8.48;88.53;100241.31;5095317;28;20561;-73
2023/01/12 07:47:38;;;;;;;2.20;2.00;;;;;;;8.51;88.37;100235.75;5114029;28;20247;-72
2023/01/12 07:50:05;;;;;;;5.90;2.00;;;;;;;8.49;88.62;100245.69;5113526;28;20276;-73
2023/01/12 07:52:31;;;;;;;3.60;1.93;;;;;;;8.53;88.65;100241.00;5113464;28;20224;-73
2023/01/12 07:54:58;;;;;;;2.17;2.07;;;;;;;8.54;89.12;100232.00;5113587;28;20207;-73
2023/01/12 07:57:24;;;;;;;17.73;2.30;;;;;;;8.57;88.62;100250.50;5116312;28;20258;-73
2023/01/12 07:59:51;;;;;;;3.17;2.17;;;;;;;8.64;88.25;100233.09;5099564;28;20217;-73
2023/01/12 08:02:18;;;;;;;2.33;2.13;;;;;;;8.70;88.34;100234.44;5117963;28;20252;-73
2023/01/12 08:04:45;;;;;;;3.20;2.20;;;;;;;8.75;88.17;100242.97;5117541;28;20205;-73
2023/01/12 08:07:14;;;;;;;4.03;2.57;;;;;;;8.79;87.74;100236.47;5117535;28;20280;-73
2023/01/12 08:09:40;;;;;;;4.73;2.73;;;;;;;8.83;88.25;100226.41;5099551;28;20189;-73
2023/01/12 08:12:07;;;;;;;3.10;2.10;;;;;;;8.87;87.97;100234.06;5117449;28;20219;-73
2023/01/12 08:14:36;;;;;;;2.13;1.90;;;;;;;8.87;87.84;100231.41;5117322;28;20244;-74
2023/01/12 08:17:08;;;;;;;2.57;2.47;;;;;;;8.90;88.02;100252.53;5117581;28;20262;-72
2023/01/12 08:19:41;;;;;;;3.27;2.83;;;;;;;8.96;87.67;100245.06;5117397;28;20205;-73
2023/01/12 08:22:14;;;;;;;8.87;2.07;;;;;;;8.96;87.14;100232.56;5117133;28;20679;-73
2023/01/12 08:24:56;;;;;;;2.77;2.57;;;;;;;8.98;87.43;100237.78;5117269;28;20178;-73
2023/01/12 08:27:27;;;;;;;2.93;2.73;;;;;;;9.02;87.55;100229.41;5117449;28;20233;-73
2023/01/12 08:29:57;;;;;;;2.83;2.43;;;;;;;9.06;87.77;100248.75;5117107;28;20249;-73
2023/01/12 08:32:27;;;;;;;9.57;2.17;;;;;;;9.08;87.64;100246.84;5117024;28;20656;-73
2023/01/12 08:34:57;;;;;;;2.33;2.23;;;;;;;9.11;87.27;100235.91;5116926;28;20228;-73
2023/01/12 08:37:27;;;;;;;3.43;3.10;;;;;;;9.13;87.63;100220.63;5116989;28;20292;-72
2023/01/12 08:39:54;;;;;;;2.03;2.03;;;;;;;9.17;87.56;100232.81;5117241;28;20264;-73
2023/01/12 08:42:23;;;;;;;2.90;2.80;;;;;;;9.14;87.75;100233.84;5117124;28;20193;-73
2023/01/12 08:44:53;;;;;;;4.67;2.40;;;;;;;9.17;87.29;100235.47;5117161;28;20166;-73
2023/01/12 08:47:27;;;;;;;2.23;2.23;;;;;;;9.20;87.48;100239.75;5116711;28;20204;-72
2023/01/12 08:49:53;;;;;;;4.13;2.90;;;;;;;9.22;86.86;100227.97;5116833;28;20204;-73
2023/01/12 08:52:20;;;;;;;2.33;2.33;;;;;;;9.20;87.97;100227.22;5116650;28;20677;-73
2023/01/12 08:54:47;;;;;;;2.47;2.37;;;;;;;9.28;87.62;100240.00;5116872;28;20197;-72
2023/01/12 08:57:18;;;;;;;6.17;2.30;;;;;;;9.31;87.40;100250.47;5116782;28;20542;-73
2023/01/12 08:59:45;;;;;;;3.33;3.13;;;;;;;9.22;86.85;100256.50;5116585;28;20235;-73
2023/01/12 09:02:13;;;;;;;2.70;2.50;;;;;;;9.25;87.17;100237.56;5117130;28;20188;-73
2023/01/12 09:04:40;;;;;;;3.00;2.80;;;;;;;9.28;87.24;100232.84;5116394;28;20271;-73
2023/01/12 09:07:08;;;;;;;2.30;2.20;;;;;;;9.30;86.66;100254.97;5116732;28;20205;-73
2023/01/12 09:09:34;;;;;;;4.97;3.07;;;;;;;9.36;86.01;100245.63;5115769;28;20185;-73
2023/01/12 09:12:01;;;;;;;2.83;2.63;;;;;;;9.38;86.20;100238.34;5116830;28;20181;-73
2023/01/12 09:14:28;;;;;;;3.23;2.70;;;;;;;9.40;86.44;100238.25;5116759;28;20258;-73
2023/01/12 09:16:55;;;;;;;3.00;2.80;;;;;;;9.43;86.29;100240.69;5116386;28;20767;-72
2023/01/12 09:19:22;;;;;;;4.43;2.77;;;;;;;9.46;85.90;100251.16;5116421;28;20185;-73
2023/01/12 09:21:48;;;;;;;3.20;2.90;;;;;;;9.45;85.64;100241.44;5115997;28;20185;-73
2023/01/12 09:24:15;;;;;;;4.57;2.40;;;;;;;9.47;85.35;100252.84;5115989;28;20201;-74
2023/01/12 09:26:44;;;;;;;8.77;2.43;;;;;;;9.52;85.90;100246.19;5116215;28;20219;-72
2023/01/12 09:29:12;;;;;;;1.93;1.83;;;;;;;9.55;85.61;100254.00;5115977;28;20659;-73
2023/01/12 09:31:41;;;;;;;2.80;2.70;;;;;;;9.54;85.77;100257.63;5115864;28;20231;-73
2023/01/12 09:34:08;;;;;;;4.50;2.57;;;;;;;9.55;84.99;100261.13;5115882;28;20200;-73
2023/01/12 09:36:36;;;;;;;3.10;3.10;;;;;;;9.58;85.19;100268.94;5115774;28;20233;-72
2023/01/12 09:39:04;;;;;;;2.07;2.00;;;;;;;9.61;85.54;100270.53;5115746;28;20275;-73
2023/01/12 09:47:55;;;;;;;2.63;2.50;;;;;;;9.64;85.12;100263.13;5115848;28;20280;-73
2023/01/12 09:50:26;;;;;;;6.13;2.47;;;;;;;9.68;85.36;100267.28;5116141;28;20177;-73
2023/01/12 09:53:01;;;;;;;5.23;2.47;;;;;;;9.78;84.99;100280.81;5115802;28;20184;-73
2023/01/12 09:55:39;;;;;;;4.77;2.80;;;;;;;9.81;84.80;100288.59;5115719;28;20260;-73
2023/01/12 09:58:41;;;;;;;2.90;2.00;;;;;;;9.82;84.24;100276.06;5097947;28;20308;-73
2023/01/12 10:01:14;;;;;;;6.33;2.40;;;;;;;9.84;84.50;100291.06;5115339;28;20185;-73
2023/01/12 10:03:55;;;;;;;1.87;1.87;;;;;;;9.82;84.85;100286.75;5115913;28;20172;-73
2023/01/12 10:06:22;;;;;;;2.43;2.17;;;;;;;9.85;84.54;100302.59;5115208;28;20259;-72
2023/01/12 10:08:55;;;;;;;2.50;2.30;;;;;;;9.88;84.72;100299.69;5115221;28;20245;-73
2023/01/12 10:11:32;;;;;;;6.03;2.37;;;;;;;9.90;83.94;100289.72;5115385;28;20591;-73
2023/01/12 10:14:43;;;;;;;4.20;2.57;;;;;;;9.93;83.43;100289.47;5115004;28;20271;-73
2023/01/12 10:17:33;;;;;;;2.20;2.20;;;;;;;9.94;84.32;100304.59;5094529;28;20255;-73
2023/01/12 10:20:37;;;;;;;5.47;1.83;;;;;;;9.97;84.14;100299.00;5115002;28;20184;-73
2023/01/12 10:23:06;;;;;;;1.90;1.90;;;;;;;10.04;83.70;100302.91;5115086;28;20272;-73
2023/01/12 10:25:50;;;;;;;1.63;1.63;;;;;;;10.09;83.55;100310.56;5115599;28;20501;-73
2023/01/12 10:28:23;;;;;;;6.87;2.07;;;;;;;10.06;83.48;100314.34;5114858;28;20296;-73
2023/01/12 10:30:50;;;;;;;2.63;2.03;;;;;;;10.12;83.33;100299.63;5115334;28;20173;-73
2023/01/12 10:33:25;;;;;;;2.43;1.97;;;;;;;10.15;83.33;100315.44;5114684;28;20184;-73
2023/01/12 10:36:02;;;;;;;2.33;2.10;;;;;;;10.10;83.79;100309.59;5114998;28;20204;-73
2023/01/12 10:38:37;;;;;;;2.07;1.93;;;;;;;10.06;84.15;100306.31;5114597;28;20572;-73
2023/01/12 10:41:09;;;;;;;3.17;2.00;;;;;;;10.04;84.71;100320.78;5115188;28;20177;-73
2023/01/12 10:43:38;;;;;;;1.77;1.77;;;;;;;10.02;85.01;100304.84;5114816;28;20256;-73
2023/01/12 10:46:16;;;;;;;3.00;2.90;;;;;;;10.07;84.95;100305.34;5114808;28;20539;-73
2023/01/12 10:48:47;;;;;;;1.67;1.67;;;;;;;10.12;84.82;100315.69;5114346;28;20695;-73
2023/01/12 10:51:33;;;;;;;2.00;2.00;;;;;;;10.10;85.34;100302.41;5114662;28;20256;-73
2023/01/12 10:54:07;;;;;;;2.63;2.27;;;;;;;10.11;84.65;100308.66;5114595;28;20280;-74
2023/01/12 10:56:38;;;;;;;2.50;2.47;;;;;;;10.13;84.71;100320.94;5114569;28;20678;-72
2023/01/12 10:59:10;;;;;;;2.17;2.07;;;;;;;10.19;84.31;100301.72;5114194;28;20199;-73
2023/01/12 11:01:49;;;;;;;2.30;1.97;;;;;;;10.21;84.81;100313.16;5114437;28;20548;-73
2023/01/12 11:04:27;;;;;;;1.97;1.87;;;;;;;10.18;84.85;100320.59;5114171;28;20233;-73
2023/01/12 11:07:15;;;;;;;2.07;1.97;;;;;;;10.14;85.22;100327.97;5114336;28;20212;-73
2023/01/12 11:09:42;;;;;;;3.10;2.70;;;;;;;10.14;85.39;100335.16;5114002;28;20193;-73
2023/01/12 11:12:24;;;;;;;3.50;2.50;;;;;;;10.14;85.04;100311.06;5114043;28;20224;-73
2023/01/12 11:15:14;;;;;;;4.47;2.63;;;;;;;10.10;85.81;100318.47;5113949;28;20293;-73
2023/01/12 11:18:02;;;;;;;4.43;2.40;;;;;;;10.12;85.26;100304.97;5096178;28;20200;-73
2023/01/12 11:20:36;;;;;;;2.43;2.23;;;;;;;10.00;86.14;100298.75;5113902;28;20256;-73
2023/01/12 11:23:09;;;;;;;3.03;2.93;;;;;;;10.06;86.27;100311.66;5113770;28;20257;-73
2023/01/12 11:25:42;;;;;;;3.20;3.00;;;;;;;10.09;86.07;100300.72;5095567;28;20216;-73
2023/01/12 11:28:17;;;;;;;3.20;2.90;;;;;;;10.08;86.48;100312.41;5095412;28;20237;-72
2023/01/12 11:30:50;;;;;;;3.87;3.57;;;;;;;10.11;86.92;100309.50;5113593;28;20205;-72
2023/01/12 11:33:45;;;;;;;3.63;3.43;;;;;;;10.07;85.92;100294.63;5114016;28;20260;-73
2023/01/12 11:36:24;;;;;;;3.83;3.53;;;;;;;10.10;85.88;100309.59;5106350;28;20243;-73
2023/01/12 11:38:54;;;;;;;2.47;2.27;;;;;;;10.05;85.65;100283.19;5113988;28;20260;-73
2023/01/12 11:41:33;;;;;;;6.03;2.70;;;;;;;10.15;85.76;100300.25;5113980;28;20212;-73
2023/01/12 11:44:29;;;;;;;4.30;2.60;;;;;;;10.15;85.88;100297.59;5114221;28;20625;-73
2023/01/12 11:47:07;;;;;;;2.93;2.83;;;;;;;10.17;86.19;100300.97;5112095;28;20303;-72
2023/01/12 11:49:55;;;;;;;4.73;2.90;;;;;;;10.22;85.27;100292.59;5113902;28;20233;-73
2023/01/12 11:52:24;;;;;;;5.37;2.93;;;;;;;10.21;85.12;100293.56;5113651;28;20248;-73
2023/01/12 11:54:51;;;;;;;5.83;2.30;;;;;;;10.20;85.05;100291.88;5113487;28;20694;-73
2023/01/12 11:57:28;;;;;;;3.73;2.77;;;;;;;10.24;85.45;100293.31;5113605;28;20291;-73
2023/01/12 12:00:21;;;;;;;2.67;2.37;;;;;;;10.27;85.44;100286.88;5113821;28;20207;-73
2023/01/12 12:03:04;;;;;;;11.70;2.80;;;;;;;10.23;85.06;100287.13;5113505;28;20205;-73
2023/01/12 12:06:00;;;;;;;3.93;2.53;;;;;;;10.22;85.24;100280.09;5095802;28;20226;-72
2023/01/12 12:08:56;;;;;;;2.73;2.27;;;;;;;10.23;84.88;100278.25;5095220;28;20213;-73
2023/01/12 12:11:38;;;;;;;3.47;2.80;;;;;;;10.26;84.76;100286.03;5113710;28;20227;-73
2023/01/12 12:14:25;;;;;;;2.60;2.60;;;;;;;10.20;85.27;100279.34;5113734;28;20677;-73
2023/01/12 12:17:13;;;;;;;2.47;2.37;;;;;;;10.20;85.11;100292.72;5113870;28;20209;-73
2023/01/12 12:19:59;;;;;;;3.40;2.20;;;;;;;10.19;86.26;100288.31;5113604;28;20550;-73
2023/01/12 12:22:40;;;;;;;3.10;2.97;;;;;;;10.19;85.73;100282.97;5113382;28;20197;-72